createdAt,value
2022-08-04T00:02:19.104Z,51.16
2022-08-04T00:04:54.024Z,50.91
2022-08-04T00:07:44.051Z,50.57
2022-08-04T00:10:16.519Z,51.34
2022-08-04T00:12:47.986Z,52.57
2022-08-04T00:15:17.106Z,52.13
2022-08-04T00:17:54.279Z,51.40
2022-08-04T00:20:22.167Z,51.70
2022-08-04T00:22:52.204Z,52.06
2022-08-04T00:25:19.816Z,51.83
2022-08-04T00:27:47.066Z,52.03
2022-08-04T00:30:13.791Z,51.90
2022-08-04T00:32:43.761Z,51.30
2022-08-04T00:35:13.350Z,51.23
2022-08-04T00:37:41.139Z,52.50
2022-08-04T00:40:22.568Z,54.01
2022-08-04T00:43:00.169Z,53.70
2022-08-04T00:46:11.678Z,54.82
2022-08-04T00:48:47.573Z,53.78
2022-08-04T00:51:35.521Z,52.86
2022-08-04T00:54:17.916Z,52.38
2022-08-04T00:57:06.277Z,52.83
2022-08-04T01:00:06.902Z,53.48
2022-08-04T01:02:54.401Z,53.06
2022-08-04T01:05:37.690Z,52.83
2022-08-04T01:08:33.867Z,52.54
2022-08-04T01:11:25.154Z,53.60
2022-08-04T01:14:16.790Z,54.78
2022-08-04T01:16:53.118Z,55.86
2022-08-04T01:19:41.315Z,55.84
2022-08-04T01:22:15.643Z,56.05
2022-08-04T01:25:08.402Z,55.04
2022-08-04T01:28:05.744Z,54.56
2022-08-04T01:30:36.247Z,54.26
2022-08-04T01:33:05.227Z,54.11
2022-08-04T01:35:46.579Z,53.88
2022-08-04T01:38:23.806Z,54.99
2022-08-04T01:40:57.392Z,55.68
2022-08-04T01:43:24.859Z,56.84
2022-08-04T01:45:59.452Z,57.52
2022-08-04T01:48:27.554Z,59.47
2022-08-04T01:50:58.842Z,61.86
2022-08-04T01:53:45.996Z,61.85
2022-08-04T01:56:12.938Z,60.37
2022-08-04T01:58:40.898Z,58.77
2022-08-04T02:01:10.508Z,57.39
2022-08-04T02:04:20.208Z,56.67
2022-08-04T02:06:52.378Z,56.03
2022-08-04T02:09:30.821Z,55.67
2022-08-04T02:12:25.988Z,56.17
2022-08-04T02:15:26.525Z,57.45
2022-08-04T02:18:21.137Z,56.44
2022-08-04T02:20:53.448Z,55.71
2022-08-04T02:23:29.023Z,55.53
2022-08-04T02:26:02.916Z,55.33
2022-08-04T02:28:40.384Z,56.12
2022-08-04T02:31:15.657Z,58.24
2022-08-04T02:33:47.978Z,60.21
2022-08-04T02:36:23.823Z,59.48
2022-08-04T02:39:00.523Z,57.83
2022-08-04T02:41:29.763Z,56.92
2022-08-04T02:44:00.702Z,57.16
2022-08-04T02:46:28.437Z,57.08
2022-08-04T02:48:56.270Z,57.74
2022-08-04T02:51:43.577Z,57.03
2022-08-04T02:54:10.284Z,56.60
2022-08-04T02:56:39.529Z,56.03
2022-08-04T02:59:08.822Z,56.17
2022-08-04T03:01:36.175Z,55.92
2022-08-04T03:04:11.854Z,55.86
2022-08-04T03:06:41.237Z,57.45
2022-08-04T03:09:28.963Z,57.39
2022-08-04T03:12:14.138Z,58.22
2022-08-04T03:14:55.191Z,59.10
2022-08-04T03:17:52.447Z,59.96
2022-08-04T03:20:37.726Z,57.98
2022-08-04T03:23:14.178Z,58.01
2022-08-04T03:26:17.671Z,57.55
2022-08-04T03:29:06.031Z,58.14
2022-08-04T03:31:35.540Z,58.72
2022-08-04T03:34:20.495Z,58.33
2022-08-04T03:37:19.149Z,58.43
2022-08-04T03:40:22.779Z,59.65
2022-08-04T03:43:07.471Z,59.48
2022-08-04T03:46:12.902Z,58.75
2022-08-04T03:49:10.474Z,57.65
2022-08-04T03:52:01.727Z,57.08
2022-08-04T03:54:46.984Z,58.41
2022-08-04T03:57:35.132Z,57.78
2022-08-04T04:00:44.537Z,58.47
2022-08-04T04:03:48.401Z,58.87
2022-08-04T04:06:53.698Z,58.48
2022-08-04T04:09:23.558Z,58.92
2022-08-04T04:12:18.232Z,58.82
2022-08-04T04:14:50.820Z,59.07
2022-08-04T04:17:44.959Z,59.83
2022-08-04T04:20:25.871Z,59.10
2022-08-04T04:23:11.063Z,58.70
2022-08-04T04:26:01.979Z,59.97
2022-08-04T04:28:45.795Z,59.11
2022-08-04T04:31:22.147Z,59.43
2022-08-04T04:34:07.862Z,58.16
2022-08-04T04:36:57.282Z,61.40
2022-08-04T04:39:49.042Z,59.20
2022-08-04T04:42:44.220Z,59.27
2022-08-04T04:45:31.213Z,59.46
2022-08-04T04:48:10.832Z,59.94
2022-08-04T04:50:58.947Z,58.49
2022-08-04T04:54:08.103Z,59.96
2022-08-04T04:56:34.891Z,58.66
2022-08-04T04:59:03.777Z,57.89
2022-08-04T05:02:09.324Z,57.99
2022-08-04T05:04:54.153Z,57.31
2022-08-04T05:07:20.873Z,58.28
2022-08-04T05:09:50.786Z,58.91
2022-08-04T05:14:31.769Z,59.60
2022-08-04T05:15:16.611Z,58.75
2022-08-04T05:17:50.148Z,57.69
2022-08-04T05:20:29.229Z,57.43
2022-08-04T05:23:09.231Z,58.61
2022-08-04T05:25:40.152Z,59.70
2022-08-04T05:28:16.439Z,59.13
2022-08-04T05:30:49.918Z,58.75
2022-08-04T05:33:29.116Z,58.75
2022-08-04T05:36:18.926Z,56.94
2022-08-04T05:38:51.565Z,56.50
2022-08-04T05:41:19.289Z,56.00
2022-08-04T05:43:46.921Z,56.06
2022-08-04T05:46:16.511Z,55.64
2022-08-04T05:48:45.763Z,55.14
2022-08-04T05:51:14.144Z,57.30
2022-08-04T05:53:44.388Z,57.09
2022-08-04T05:56:13.717Z,56.01
2022-08-04T05:58:41.693Z,55.84
2022-08-04T06:01:10.742Z,54.72
2022-08-04T06:03:39.467Z,53.68
2022-08-04T06:06:08.277Z,55.23
2022-08-04T06:08:34.987Z,55.08
2022-08-04T06:11:06.324Z,55.13
2022-08-04T06:13:53.756Z,54.38
2022-08-04T06:20:02.462Z,54.61
2022-08-04T06:22:04.765Z,53.84
2022-08-04T06:24:33.147Z,53.50
2022-08-04T06:27:03.251Z,52.09
2022-08-04T06:29:38.952Z,51.84
2022-08-04T06:32:34.384Z,52.00
2022-08-04T06:35:06.600Z,51.90
2022-08-04T06:37:42.807Z,52.90
2022-08-04T06:40:29.933Z,52.42
2022-08-04T06:43:01.232Z,51.88
2022-08-04T06:45:28.598Z,52.06
2022-08-04T06:47:56.359Z,52.55
2022-08-04T06:51:24.724Z,52.75
2022-08-04T06:53:21.937Z,51.83
2022-08-04T06:55:50.446Z,51.91
2022-08-04T06:58:19.327Z,52.12
2022-08-04T07:00:47.842Z,52.97
2022-08-04T07:03:17.815Z,51.51
2022-08-04T07:05:47.703Z,53.60
2022-08-04T07:08:14.888Z,51.93
2022-08-04T07:10:41.983Z,52.02
2022-08-04T07:13:10.562Z,51.21
2022-08-04T07:15:41.386Z,53.43
2022-08-04T07:18:08.199Z,52.66
2022-08-04T07:20:36.751Z,50.57
2022-08-04T07:23:05.803Z,50.39
2022-08-04T07:26:11.095Z,49.96
2022-08-04T07:28:24.167Z,49.77
2022-08-04T07:30:51.156Z,48.62
2022-08-04T07:33:18.556Z,48.72
2022-08-04T07:36:10.191Z,47.68
2022-08-04T07:38:51.071Z,48.70
2022-08-04T07:41:40.342Z,49.55
2022-08-04T07:44:08.423Z,48.09
2022-08-04T07:46:37.070Z,48.31
2022-08-04T07:49:05.397Z,47.05
2022-08-04T07:51:32.683Z,46.48
2022-08-04T07:54:00.463Z,45.90
2022-08-04T07:56:28.040Z,46.10
2022-08-04T07:58:55.388Z,45.91
2022-08-04T08:01:26.086Z,46.73
2022-08-04T08:03:55.484Z,45.76
2022-08-04T08:06:32.714Z,46.86
2022-08-04T08:09:14.339Z,45.34
2022-08-04T08:12:35.762Z,45.12
2022-08-04T08:14:35.576Z,44.61
2022-08-04T08:17:03.803Z,44.83
2022-08-04T08:19:34.875Z,43.74
2022-08-04T08:22:02.580Z,44.25
2022-08-04T08:24:31.149Z,43.67
2022-08-04T08:26:58.553Z,43.70
2022-08-04T08:29:26.283Z,43.97
2022-08-04T08:31:57.528Z,42.71
2022-08-04T08:34:31.117Z,41.53
2022-08-04T08:37:10.990Z,44.33
2022-08-04T08:39:42.735Z,43.60
2022-08-04T08:42:09.450Z,44.36
2022-08-04T08:45:01.265Z,42.41
2022-08-04T08:48:04.870Z,40.98
2022-08-04T08:51:09.055Z,38.82
2022-08-04T08:53:57.022Z,39.42
2022-08-04T08:56:35.567Z,39.29
2022-08-04T08:59:15.796Z,39.64
2022-08-04T09:02:01.274Z,39.32
2022-08-04T09:04:55.819Z,38.89
2022-08-04T09:07:37.906Z,39.07
2022-08-04T09:10:38.673Z,38.55
2022-08-04T09:13:16.246Z,38.47
2022-08-04T09:16:19.637Z,39.46
2022-08-04T09:18:46.225Z,38.88
2022-08-04T09:21:33.456Z,37.80
2022-08-04T09:24:35.645Z,37.72
2022-08-04T09:27:20.297Z,36.63
2022-08-04T09:30:09.292Z,37.02
2022-08-04T09:32:38.952Z,34.50
2022-08-04T09:36:01.106Z,35.25
2022-08-04T09:38:33.244Z,35.22
2022-08-04T09:41:22.087Z,33.86
2022-08-04T09:44:52.419Z,34.09
2022-08-04T09:47:45.814Z,33.42
2022-08-04T09:50:49.979Z,33.51
2022-08-04T09:53:41.692Z,32.83
2022-08-04T09:56:27.291Z,32.24
2022-08-04T09:59:50.673Z,32.80
2022-08-04T10:02:19.676Z,35.90
2022-08-04T10:04:49.624Z,36.87
2022-08-04T10:07:22.593Z,35.22
2022-08-04T10:10:01.265Z,34.51
2022-08-04T10:12:41.888Z,34.19
2022-08-04T10:15:20.213Z,32.09
2022-08-04T10:18:07.983Z,30.91
2022-08-04T10:21:00.013Z,31.53
2022-08-04T10:23:55.971Z,30.10
2022-08-04T10:26:35.071Z,29.23
2022-08-04T10:29:12.591Z,30.00
2022-08-04T10:32:00.553Z,29.21
2022-08-04T10:34:31.884Z,27.92
2022-08-04T10:37:59.040Z,28.75
2022-08-04T10:40:45.329Z,28.83
2022-08-04T10:43:46.391Z,27.19
2022-08-04T10:46:17.484Z,28.12
2022-08-04T10:49:35.195Z,27.96
2022-08-04T10:52:19.610Z,25.98
2022-08-04T10:55:00.943Z,26.77
2022-08-04T10:57:39.365Z,26.03
2022-08-04T11:00:10.548Z,27.11
2022-08-04T11:02:58.333Z,27.60
2022-08-04T11:05:44.140Z,28.99
2022-08-04T11:08:25.295Z,29.39
2022-08-04T11:11:10.014Z,30.41
2022-08-04T11:14:03.417Z,30.24
2022-08-04T11:17:07.924Z,30.07
2022-08-04T11:19:49.991Z,29.01
2022-08-04T11:22:25.636Z,28.17
2022-08-04T11:25:00.916Z,28.53
2022-08-04T11:28:01.473Z,28.05
2022-08-04T11:30:38.094Z,28.08
2022-08-04T11:33:16.969Z,27.63
2022-08-04T11:36:14.866Z,27.13
2022-08-04T11:38:53.526Z,28.05
2022-08-04T11:41:26.729Z,27.39
2022-08-04T11:44:04.280Z,27.28
2022-08-04T11:46:48.949Z,27.28
2022-08-04T11:49:22.063Z,27.19
2022-08-04T11:51:51.814Z,27.24
2022-08-04T11:54:19.220Z,26.89
2022-08-04T11:56:46.473Z,26.65
2022-08-04T11:59:13.265Z,26.43
2022-08-04T12:01:58.394Z,25.90
2022-08-04T12:04:47.620Z,26.72
2022-08-04T12:07:30.590Z,25.93
2022-08-04T12:10:04.129Z,26.43
2022-08-04T12:12:39.733Z,27.37
2022-08-04T12:15:15.297Z,25.97
2022-08-04T12:18:07.704Z,27.47
2022-08-04T12:20:43.417Z,27.04
2022-08-04T12:23:40.320Z,26.60
2022-08-04T12:26:10.824Z,27.23
2022-08-04T12:29:09.068Z,26.77
2022-08-04T12:31:40.473Z,26.42
2022-08-04T12:34:17.299Z,27.16
2022-08-04T12:36:55.881Z,27.25
2022-08-04T12:39:23.405Z,26.52
2022-08-04T12:42:17.079Z,27.63
2022-08-04T12:44:49.963Z,27.34
2022-08-04T12:47:28.134Z,26.65
2022-08-04T12:50:02.116Z,26.88
2022-08-04T12:55:31.644Z,27.14
2022-08-04T12:58:00.227Z,27.54
2022-08-04T13:00:39.700Z,27.71
2022-08-04T13:03:11.803Z,27.26
2022-08-04T13:05:42.949Z,27.82
2022-08-04T13:08:14.336Z,26.88
2022-08-04T13:10:44.529Z,27.42
2022-08-04T13:13:20.017Z,27.35
2022-08-04T13:16:01.707Z,27.60
2022-08-04T13:18:32.840Z,27.36
2022-08-04T13:21:19.328Z,25.90
2022-08-04T13:24:09.515Z,25.52
2022-08-04T13:26:43.704Z,24.73
2022-08-04T13:29:59.004Z,24.34
2022-08-04T13:32:15.356Z,24.82
2022-08-04T13:34:49.120Z,25.12
2022-08-04T13:37:21.059Z,25.17
2022-08-04T13:39:55.899Z,24.88
2022-08-04T13:42:25.836Z,25.29
2022-08-04T13:44:57.253Z,25.70
2022-08-04T13:47:29.806Z,24.53
2022-08-04T13:50:14.122Z,25.19
2022-08-04T13:52:42.411Z,25.54
2022-08-04T13:55:19.967Z,25.81
2022-08-04T13:57:53.001Z,26.45
2022-08-04T14:00:29.135Z,25.09
2022-08-04T14:03:19.099Z,25.57
2022-08-04T14:06:26.209Z,25.12
2022-08-04T14:09:01.495Z,25.85
2022-08-04T14:12:10.615Z,24.37
2022-08-04T14:14:27.666Z,24.52
2022-08-04T14:17:06.081Z,25.39
2022-08-04T14:19:50.174Z,25.59
2022-08-04T14:22:25.626Z,24.89
2022-08-04T14:25:15.811Z,26.43
2022-08-04T14:27:55.188Z,24.64
2022-08-04T14:30:24.679Z,24.96
2022-08-04T14:34:02.662Z,26.44
2022-08-04T14:35:59.071Z,24.93
2022-08-04T14:38:42.575Z,25.21
2022-08-04T14:41:12.339Z,24.42
2022-08-04T14:43:45.067Z,24.12
2022-08-04T14:46:12.935Z,25.24
2022-08-04T14:48:42.973Z,24.88
2022-08-04T14:51:16.633Z,24.82
2022-08-04T14:53:52.914Z,25.42
2022-08-04T14:56:45.022Z,25.02
2022-08-04T14:59:11.692Z,25.66
2022-08-04T15:01:39.592Z,26.05
2022-08-04T15:04:07.499Z,26.38
2022-08-04T15:06:35.951Z,26.01
2022-08-04T15:09:07.103Z,26.09
2022-08-04T15:11:38.907Z,26.02
2022-08-04T15:14:08.646Z,26.30
2022-08-04T15:16:55.357Z,26.56
2022-08-04T15:19:22.822Z,26.41
2022-08-04T15:21:49.888Z,26.85
2022-08-04T15:24:16.765Z,26.83
2022-08-04T15:26:48.803Z,26.52
2022-08-04T15:29:31.778Z,27.10
2022-08-04T15:32:19.403Z,27.58
2022-08-04T15:34:52.257Z,27.33
2022-08-04T15:37:28.933Z,27.75
2022-08-04T15:40:09.885Z,26.76
2022-08-04T15:42:43.617Z,27.55
2022-08-04T15:46:30.774Z,27.85
2022-08-04T15:48:10.930Z,28.33
2022-08-04T15:51:00.682Z,27.98
2022-08-04T15:54:02.235Z,28.26
2022-08-04T15:56:26.553Z,28.70
2022-08-04T15:58:55.212Z,28.21
2022-08-04T16:01:22.502Z,28.23
2022-08-04T16:03:54.302Z,28.02
2022-08-04T16:06:29.117Z,28.95
2022-08-04T16:09:05.068Z,28.26
2022-08-04T16:11:33.338Z,28.29
2022-08-04T16:14:00.187Z,28.31
2022-08-04T16:16:49.976Z,27.50
2022-08-04T16:19:53.304Z,28.00
2022-08-04T16:22:40.591Z,28.21
2022-08-04T16:25:09.177Z,27.56
2022-08-04T16:27:41.814Z,27.65
2022-08-04T16:30:15.029Z,29.04
2022-08-04T16:32:43.972Z,29.20
2022-08-04T16:35:28.751Z,28.02
2022-08-04T16:38:13.268Z,28.46
2022-08-04T16:40:44.314Z,29.33
2022-08-04T16:43:16.592Z,27.48
2022-08-04T16:46:03.765Z,28.51
2022-08-04T16:48:30.423Z,28.91
2022-08-04T16:51:04.546Z,28.57
2022-08-04T16:53:53.703Z,29.20
2022-08-04T16:56:33.074Z,28.05
2022-08-04T16:59:09.797Z,28.43
2022-08-04T17:01:37.623Z,27.98
2022-08-04T17:04:05.849Z,27.92
2022-08-04T17:06:41.541Z,30.06
2022-08-04T17:09:18.029Z,32.08
2022-08-04T17:11:46.627Z,31.36
2022-08-04T17:14:13.734Z,31.56
2022-08-04T17:16:43.478Z,31.95
2022-08-04T17:19:23.653Z,32.02
2022-08-04T17:21:56.585Z,32.66
2022-08-04T17:24:25.654Z,33.07
2022-08-04T17:26:54.598Z,32.23
2022-08-04T17:29:43.109Z,32.53
2022-08-04T17:32:16.956Z,30.70
2022-08-04T17:34:49.060Z,30.77
2022-08-04T17:37:39.051Z,31.94
2022-08-04T17:40:10.385Z,32.54
2022-08-04T17:45:50.810Z,33.51
2022-08-04T17:48:24.831Z,33.33
2022-08-04T17:50:52.331Z,33.69
2022-08-04T17:54:03.209Z,33.43
2022-08-04T17:56:51.793Z,33.78
2022-08-04T17:59:52.249Z,33.39
2022-08-04T18:02:10.524Z,34.08
2022-08-04T18:05:06.273Z,34.57
2022-08-04T18:08:38.246Z,35.02
2022-08-04T18:10:44.473Z,35.25
2022-08-04T18:13:21.575Z,36.10
2022-08-04T18:15:48.449Z,36.22
2022-08-04T18:18:23.621Z,35.93
2022-08-04T18:20:50.678Z,35.77
2022-08-04T18:23:17.570Z,35.24
2022-08-04T18:25:51.219Z,35.97
2022-08-04T18:28:26.497Z,36.13
2022-08-04T18:33:42.118Z,37.25
2022-08-04T18:36:35.531Z,37.53
2022-08-04T18:39:13.123Z,36.94
2022-08-04T18:42:00.783Z,36.77
2022-08-04T18:44:52.219Z,35.93
2022-08-04T18:47:22.977Z,36.37
2022-08-04T18:50:59.272Z,35.80
2022-08-04T18:52:42.003Z,36.28
2022-08-04T18:55:12.949Z,37.22
2022-08-04T18:58:01.598Z,37.13
2022-08-04T19:00:32.947Z,37.03
2022-08-04T19:03:01.274Z,36.71
2022-08-04T19:05:37.749Z,36.18
2022-08-04T19:08:11.492Z,36.85
2022-08-04T19:11:00.005Z,36.74
2022-08-04T19:13:28.079Z,36.92
2022-08-04T19:15:54.873Z,37.14
2022-08-04T19:18:25.819Z,37.87
2022-08-04T19:20:55.040Z,38.17
2022-08-04T19:24:10.582Z,38.21
2022-08-04T19:26:23.725Z,38.38
2022-08-04T19:28:55.616Z,39.23
2022-08-04T19:31:28.390Z,38.69
2022-08-04T19:34:07.406Z,37.67
2022-08-04T19:36:34.818Z,37.61
2022-08-04T19:39:11.191Z,37.84
2022-08-04T19:42:05.847Z,37.70
2022-08-04T19:44:29.868Z,37.53
2022-08-04T19:46:57.383Z,37.49
2022-08-04T19:50:05.373Z,38.07
2022-08-04T19:52:14.412Z,37.96
2022-08-04T19:55:00.181Z,37.92
2022-08-04T19:57:36.829Z,37.78
2022-08-04T20:00:05.445Z,38.01
2022-08-04T20:02:32.649Z,38.05
2022-08-04T20:05:02.199Z,37.68
2022-08-04T20:07:35.614Z,37.70
2022-08-04T20:10:04.433Z,38.04
2022-08-04T20:12:31.841Z,38.34
2022-08-04T20:17:55.810Z,38.44
2022-08-04T20:20:32.222Z,38.08
2022-08-04T20:22:58.944Z,37.48
2022-08-04T20:28:25.747Z,37.10
2022-08-04T20:30:59.521Z,37.32
2022-08-04T20:33:26.304Z,37.34
2022-08-04T20:36:05.529Z,37.48
2022-08-04T20:38:34.406Z,37.67
2022-08-04T20:41:01.772Z,38.26
2022-08-04T20:43:31.231Z,38.20
2022-08-04T20:45:59.387Z,37.44
2022-08-04T20:48:29.918Z,37.20
2022-08-04T20:51:00.608Z,37.50
2022-08-04T20:53:46.393Z,36.88
2022-08-04T20:56:19.059Z,36.96
2022-08-04T20:58:57.856Z,37.30
2022-08-04T21:01:29.665Z,37.41
2022-08-04T21:04:27.263Z,37.46
2022-08-04T21:06:56.013Z,37.85
2022-08-04T21:09:37.462Z,38.14
2022-08-04T21:12:09.905Z,39.06
2022-08-04T21:14:36.683Z,39.70
2022-08-04T21:17:04.097Z,39.31
2022-08-04T21:19:36.842Z,39.46
2022-08-04T21:22:10.436Z,40.01
2022-08-04T21:24:37.795Z,39.95
2022-08-04T21:27:09.870Z,39.91
2022-08-04T21:29:37.536Z,40.33
2022-08-04T21:32:07.669Z,40.06
2022-08-04T21:34:37.889Z,39.98
2022-08-04T21:37:05.909Z,40.72
2022-08-04T21:39:32.970Z,40.59
2022-08-04T21:42:29.539Z,40.60
2022-08-04T21:44:57.658Z,40.37
2022-08-04T21:47:24.546Z,40.11
2022-08-04T21:49:56.827Z,40.39
2022-08-04T21:52:24.674Z,40.42
2022-08-04T21:54:54.463Z,40.24
2022-08-04T21:57:24.894Z,40.30
2022-08-04T21:59:52.324Z,40.33
2022-08-04T22:02:19.489Z,40.21
2022-08-04T22:04:48.383Z,40.00
2022-08-04T22:07:20.294Z,40.27
2022-08-04T22:10:00.143Z,40.71
2022-08-04T22:12:29.868Z,40.47
2022-08-04T22:14:59.329Z,41.26
2022-08-04T22:17:27.536Z,41.38
2022-08-04T22:20:02.323Z,41.55
2022-08-04T22:22:30.025Z,41.42
2022-08-04T22:25:01.406Z,41.60
2022-08-04T22:27:54.957Z,41.35
2022-08-04T22:30:23.654Z,41.85
2022-08-04T22:32:50.635Z,41.57
2022-08-04T22:35:36.353Z,41.61
2022-08-04T22:38:24.100Z,41.56
2022-08-04T22:41:03.829Z,41.30
2022-08-04T22:43:34.396Z,41.06
2022-08-04T22:46:05.200Z,41.05
2022-08-04T22:48:35.492Z,41.31
2022-08-04T22:51:03.169Z,41.20
2022-08-04T22:53:30.720Z,41.44
2022-08-04T22:56:10.016Z,41.75
2022-08-04T22:58:45.051Z,41.44
2022-08-04T23:01:13.400Z,41.64
2022-08-04T23:03:42.823Z,41.54
2022-08-04T23:06:24.378Z,41.47
2022-08-04T23:08:52.048Z,41.56
2022-08-04T23:11:19.106Z,41.52
2022-08-04T23:13:46.059Z,41.91
2022-08-04T23:16:14.218Z,41.97
2022-08-04T23:18:42.072Z,42.18
2022-08-04T23:21:10.301Z,42.20
2022-08-04T23:23:47.794Z,42.60
2022-08-04T23:26:27.748Z,42.42
2022-08-04T23:28:56.109Z,43.26
2022-08-04T23:31:23.725Z,43.43
2022-08-04T23:33:51.982Z,42.99
2022-08-04T23:36:29.517Z,43.09
2022-08-04T23:39:04.230Z,43.07
2022-08-04T23:41:50.932Z,43.11
2022-08-04T23:44:24.217Z,42.78
2022-08-04T23:46:57.950Z,42.61
2022-08-04T23:49:25.284Z,43.26
2022-08-04T23:52:23.204Z,42.98
2022-08-04T23:54:55.215Z,43.15
2022-08-04T23:57:22.374Z,43.45
2022-08-04T23:59:54.327Z,43.24
